Time;durP1;ratioP1;P1;durP2;ratioP2;P2;SDS_P1;SDS_P2;PMS_P1;PMS_P2;Temp;Humidity;BMP_temperature;BMP_pressure;BME280_temperature;BME280_humidity;BME280_pressure;Samples;Min_cycle;Max_cycle;Signal;HPM_P1;HPM_P2
2021/11/28 00:02:38;;;;;;;;;;;2.80;99.90;;;1.69;96.24;93600.44;10380058;28;2031;-73
2021/11/28 00:08:10;;;;;;;;;;;2.80;99.90;;;1.65;96.15;93599.38;10370688;28;1983;-73
2021/11/28 00:13:23;;;;;;;;;;;2.80;99.90;;;1.56;95.29;93605.25;10362904;28;2047;-74
2021/11/28 00:18:26;;;;;;;;;;;2.80;99.90;;;1.57;95.45;93590.16;10361965;28;2051;-74
2021/11/28 00:23:29;;;;;;;;;;;2.70;99.90;;;1.62;96.03;93588.28;10364243;28;1996;-74
2021/11/28 00:28:32;;;;;;;;;;;2.70;99.90;;;1.65;96.83;93581.63;10362955;28;2241;-74
2021/11/28 00:33:35;;;;;;;;;;;2.70;99.90;;;1.71;95.66;93580.56;10364403;28;1996;-73
2021/11/28 00:38:39;;;;;;;;;;;2.80;99.90;;;1.76;94.81;93580.53;10368164;28;1953;-72
2021/11/28 00:43:42;;;;;;;;;;;2.80;99.90;;;1.81;93.39;93585.03;10366401;28;1959;-73
2021/11/28 00:48:45;;;;;;;;;;;2.90;99.90;;;1.75;93.55;93586.91;10364678;28;1971;-73
2021/11/28 00:53:48;;;;;;;;;;;2.90;99.90;;;1.77;94.21;93583.97;10365806;28;1959;-73
2021/11/28 00:58:51;;;;;;;;;;;2.90;99.90;;;1.78;93.04;93585.56;10366728;28;1995;-72
2021/11/28 01:03:54;;;;;;;;;;;2.90;99.90;;;1.74;94.23;93595.13;10364680;28;1959;-74
2021/11/28 01:08:56;;;;;;;;;;;2.90;99.90;;;1.86;93.67;93599.03;10354686;28;1963;-72
2021/11/28 01:13:59;;;;;;;;;;;2.90;99.90;;;1.86;92.42;93606.22;10361574;28;1991;-72
2021/11/28 01:19:07;;;;;;;;;;;3.00;99.90;;;1.90;92.45;93615.19;10366182;28;2049;-74
2021/11/28 01:24:10;;;;;;;;;;;3.00;99.90;;;1.93;92.83;93611.22;10361690;28;1995;-72
2021/11/28 01:29:13;;;;;;;;;;;3.00;99.90;;;1.92;94.01;93610.41;10362575;28;1940;-72
2021/11/28 01:34:16;;;;;;;;;;;3.00;99.90;;;1.82;94.03;93603.28;10364158;28;1988;-72
2021/11/28 01:39:19;;;;;;;;;;;3.00;99.90;;;1.89;97.59;93622.34;10361256;28;2029;-72
2021/11/28 01:44:21;;;;;;;;;;;3.00;99.90;;;1.75;100.00;93628.50;10364167;28;1932;-72
2021/11/28 01:49:24;;;;;;;;;;;3.00;99.90;;;1.56;100.00;93642.31;10361673;28;2333;-73
2021/11/28 01:54:27;;;;;;;;;;;2.90;99.90;;;1.39;100.00;93649.78;10362802;28;1972;-72
2021/11/28 01:59:30;;;;;;;;;;;2.70;99.90;;;1.35;100.00;93624.91;10358046;28;1894;-71
2021/11/28 02:04:33;;;;;;;;;;;2.60;99.90;;;1.21;100.00;93626.50;10364736;28;1873;-71
2021/11/28 02:09:36;;;;;;;;;;;2.50;99.90;;;1.14;100.00;93628.63;10361396;28;2182;-74
2021/11/28 02:14:55;;;;;;;;;;;2.40;99.90;;;1.14;100.00;93633.94;10357083;28;1903;-72
2021/11/28 02:19:58;;;;;;;;;;;2.30;99.90;;;1.09;100.00;93624.16;10366123;28;2225;-73
2021/11/28 02:25:05;;;;;;;;;;;2.30;99.90;;;1.07;100.00;93613.03;10366954;28;1945;-72
2021/11/28 02:30:28;;;;;;;;;;;2.20;99.90;;;1.12;100.00;93604.31;10371962;28;1941;-72
2021/11/28 02:35:33;;;;;;;;;;;2.20;99.90;;;1.05;100.00;93599.28;10369338;28;1979;-73
2021/11/28 02:40:36;;;;;;;;;;;2.20;99.90;;;1.16;100.00;93592.13;10361078;28;1881;-73
2021/11/28 02:45:39;;;;;;;;;;;2.30;99.90;;;1.16;100.00;93606.16;10363372;28;1852;-73
2021/11/28 02:50:42;;;;;;;;;;;2.30;99.90;;;1.18;100.00;93603.25;10365511;28;1983;-73
2021/11/28 02:55:45;;;;;;;;;;;2.30;99.90;;;1.19;100.00;93594.22;10366594;28;1936;-77
2021/11/28 03:00:47;;;;;;;;;;;2.30;99.90;;;1.18;100.00;93576.78;10367409;28;1953;-72
2021/11/28 03:05:50;;;;;;;;;;;2.30;99.90;;;1.09;100.00;93573.91;10372802;28;1552;-73
2021/11/28 03:10:53;;;;;;;;;;;2.30;99.90;;;1.12;100.00;93564.63;10367171;28;1734;-73
2021/11/28 03:15:56;;;;;;;;;;;2.30;99.90;;;1.08;100.00;93562.53;10367329;28;1979;-73
2021/11/28 03:20:59;;;;;;;;;;;2.30;99.90;;;1.05;100.00;93567.53;10369783;28;1937;-73
2021/11/28 03:26:02;;;;;;;;;;;2.30;99.90;;;1.07;100.00;93560.91;10370643;28;1885;-73
2021/11/28 03:31:05;;;;;;;;;;;2.30;99.90;;;1.08;100.00;93556.41;10371011;28;1869;-72
2021/11/28 03:36:08;;;;;;;;;;;2.30;99.90;;;1.05;100.00;93552.47;10368266;28;2245;-73
2021/11/28 03:41:11;;;;;;;;;;;2.30;99.90;;;1.05;100.00;93551.66;10364094;28;1866;-72
2021/11/28 03:46:14;;;;;;;;;;;2.30;99.90;;;1.05;100.00;93549.81;10366447;28;1893;-72
2021/11/28 03:51:17;;;;;;;;;;;2.30;99.90;;;1.07;100.00;93552.97;10371916;28;1841;-72
2021/11/28 03:56:19;;;;;;;;;;;2.20;99.90;;;1.08;100.00;93544.00;10370001;28;1973;-71
2021/11/28 04:01:26;;;;;;;;;;;2.30;99.90;;;1.08;100.00;93551.94;10364263;28;1940;-73
2021/11/28 04:06:29;;;;;;;;;;;2.30;99.90;;;1.04;100.00;93547.44;10368273;28;1468;-73
2021/11/28 04:11:32;;;;;;;;;;;2.20;99.90;;;1.04;100.00;93542.94;10366572;28;1448;-72
2021/11/28 04:16:45;;;;;;;;;;;2.20;99.90;;;0.99;100.00;93542.94;10363454;28;1983;-72
2021/11/28 04:21:48;;;;;;;;;;;2.20;99.90;;;0.95;100.00;93563.06;10367646;28;1932;-72
2021/11/28 04:26:51;;;;;;;;;;;2.10;99.90;;;0.94;100.00;93550.88;10364668;28;1907;-72
2021/11/28 04:31:54;;;;;;;;;;;2.10;99.90;;;0.94;100.00;93550.88;10368174;28;2000;-72
2021/11/28 04:36:57;;;;;;;;;;;2.10;99.90;;;0.88;100.00;93541.38;10363118;28;1973;-73
2021/11/28 04:42:00;;;;;;;;;;;2.10;99.90;;;0.93;100.00;93554.59;10366014;28;1913;-72
2021/11/28 04:47:02;;;;;;;;;;;2.00;99.90;;;0.87;100.00;93550.38;10365145;28;1937;-71
2021/11/28 04:52:05;;;;;;;;;;;2.00;99.90;;;0.93;100.00;93548.53;10383740;28;1889;-72
2021/11/28 04:57:08;;;;;;;;;;;2.10;99.90;;;0.92;100.00;93549.59;10382979;28;1918;-71
2021/11/28 05:02:11;;;;;;;;;;;2.10;99.90;;;0.96;100.00;93548.00;10375330;28;1842;-72
2021/11/28 05:07:14;;;;;;;;;;;2.10;99.90;;;0.92;100.00;93555.66;10371224;28;1885;-72
2021/11/28 05:12:17;;;;;;;;;;;2.00;99.90;;;1.03;100.00;93565.19;10369997;28;1738;-71
2021/11/28 05:17:20;;;;;;;;;;;2.10;99.90;;;1.05;100.00;93567.53;10363974;28;1981;-72
2021/11/28 05:22:23;;;;;;;;;;;2.20;99.90;;;1.12;100.00;93567.25;10365466;28;1820;-72
2021/11/28 05:27:26;;;;;;;;;;;2.20;99.90;;;1.10;100.00;93566.75;10364727;28;1865;-72
2021/11/28 05:32:28;;;;;;;;;;;2.20;99.90;;;1.12;100.00;93567.25;10365208;28;2194;-72
2021/11/28 05:37:31;;;;;;;;;;;2.20;99.90;;;1.10;100.00;93569.41;10365655;28;1949;-70
2021/11/28 05:42:34;;;;;;;;;;;2.30;99.90;;;1.11;100.00;93578.91;10362921;28;1963;-71
2021/11/28 05:47:37;;;;;;;;;;;2.20;99.90;;;1.14;100.00;93583.66;10355448;28;2143;-72
2021/11/28 05:52:40;;;;;;;;;;;2.30;99.90;;;1.10;100.00;93585.28;10364569;28;1933;-72
2021/11/28 05:57:43;;;;;;;;;;;2.20;99.90;;;1.08;100.00;93582.88;10365535;28;1913;-72
2021/11/28 06:02:45;;;;;;;;;;;2.20;99.90;;;1.11;100.00;93582.34;10360590;28;2146;-72
2021/11/28 06:07:48;;;;;;;;;;;2.20;99.90;;;1.03;100.00;93574.97;10355608;28;1983;-73
2021/11/28 06:12:51;;;;;;;;;;;2.20;99.90;;;1.11;100.00;93584.22;10363578;28;2083;-72
2021/11/28 06:17:54;;;;;;;;;;;2.20;99.90;;;1.03;100.00;93583.69;10360722;28;2332;-74
2021/11/28 06:22:57;;;;;;;;;;;2.20;99.90;;;0.97;100.00;93581.31;10368587;28;1923;-73
2021/11/28 06:28:00;;;;;;;;;;;2.10;99.90;;;0.84;100.00;93582.66;10360014;28;1929;-73
2021/11/28 06:33:03;;;;;;;;;;;2.10;99.90;;;0.91;100.00;93579.75;10365395;28;1718;-73
2021/11/28 06:38:06;;;;;;;;;;;2.00;99.90;;;0.93;100.00;93586.34;10369568;28;1971;-72
2021/11/28 06:43:08;;;;;;;;;;;2.10;99.90;;;0.99;100.00;93590.56;10370981;28;1932;-73
2021/11/28 06:48:11;;;;;;;;;;;2.10;99.90;;;0.85;100.00;93592.19;10365020;28;1936;-73
2021/11/28 06:53:14;;;;;;;;;;;2.00;99.90;;;0.87;100.00;93592.69;10377733;28;2027;-73
2021/11/28 06:58:17;;;;;;;;;;;2.00;99.90;;;0.81;100.00;93605.13;10365271;28;1978;-73
2021/11/28 07:03:20;;;;;;;;;;;2.00;99.90;;;0.78;100.00;93602.25;10372548;28;1916;-73
2021/11/28 07:08:23;;;;;;;;;;;1.90;99.90;;;0.80;100.00;93615.97;10365107;28;1926;-73
2021/11/28 07:13:26;;;;;;;;;;;1.90;99.90;;;0.78;100.00;93616.25;10371116;28;1907;-74
2021/11/28 07:18:29;;;;;;;;;;;1.90;99.90;;;0.81;100.00;93621.00;10364074;28;2045;-74
2021/11/28 07:23:31;;;;;;;;;;;1.90;99.90;;;0.77;100.00;93632.41;10373504;28;1833;-75
2021/11/28 07:28:35;;;;;;;;;;;1.90;99.90;;;0.75;100.00;93637.13;10370397;28;2158;-74
2021/11/28 07:33:38;;;;;;;;;;;1.90;99.90;;;0.79;100.00;93632.91;10370446;28;1993;-74
2021/11/28 07:38:41;;;;;;;;;;;1.90;99.90;;;0.85;100.00;93626.56;10374042;28;2058;-74
2021/11/28 07:43:44;;;;;;;;;;;1.90;99.90;;;0.87;100.00;93627.09;10381322;28;1837;-73
2021/11/28 07:48:47;;;;;;;;;;;1.90;99.90;;;0.94;100.00;93624.97;10393387;28;1544;-73
2021/11/28 07:53:51;;;;;;;;;;;1.90;99.90;;;1.02;100.00;93624.44;10394730;28;1833;-73
2021/11/28 07:58:55;;;;;;;;;;;2.00;99.90;;;1.01;100.00;93620.19;10368327;28;1973;-74
2021/11/28 08:03:58;;;;;;;;;;;2.00;99.90;;;1.13;100.00;93627.84;10369848;28;1957;-75
2021/11/28 08:09:01;;;;;;;;;;;2.10;99.90;;;1.36;100.00;93626.50;10366096;28;1865;-76
2021/11/28 08:14:03;;;;;;;;;;;2.20;99.90;;;1.15;100.00;93619.66;10371738;28;1895;-74
2021/11/28 08:19:07;;;;;;;;;;;2.20;99.90;;;1.26;100.00;93626.50;10374321;28;1957;-75
2021/11/28 08:24:10;;;;;;;;;;;2.30;99.90;;;1.35;100.00;93638.16;10373663;28;1889;-75
2021/11/28 08:29:14;;;;;;;;;;;2.40;99.90;;;1.61;100.00;93626.44;10371623;28;1945;-75
2021/11/28 08:34:17;;;;;;;;;;;2.50;99.90;;;1.66;100.00;93624.84;10373165;28;1861;-75
2021/11/28 08:39:19;;;;;;;;;;;2.60;99.90;;;1.82;100.00;93624.47;10364285;28;1937;-74
2021/11/28 08:44:22;;;;;;;;;;;2.80;99.90;;;2.28;100.00;93634.06;10368865;28;1684;-74
2021/11/28 08:49:25;;;;;;;;;;;3.00;99.90;;;2.12;100.00;93639.47;10365058;28;1901;-74
2021/11/28 08:54:30;;;;;;;;;;;3.10;99.90;;;2.29;100.00;93639.13;10369101;28;1916;-73
2021/11/28 08:59:33;;;;;;;;;;;3.20;99.90;;;2.70;100.00;93633.53;10361141;28;1910;-73
2021/11/28 09:04:36;;;;;;;;;;;3.50;99.90;;;3.09;100.00;93651.28;10367796;28;1805;-74
2021/11/28 09:09:38;;;;;;;;;;;3.80;99.90;;;2.64;100.00;93656.66;10366113;28;1944;-73
2021/11/28 09:14:41;;;;;;;;;;;3.80;99.90;;;2.43;100.00;93660.50;10367563;28;1864;-74
2021/11/28 09:19:49;;;;;;;;;;;3.60;99.90;;;2.29;100.00;93660.31;10364684;28;1981;-73
2021/11/28 09:24:52;;;;;;;;;;;3.50;99.90;;;2.12;100.00;93652.72;10364501;28;1928;-74
2021/11/28 09:29:56;;;;;;;;;;;3.40;99.90;;;2.44;100.00;93646.97;10367403;28;1884;-72
2021/11/28 09:34:59;;;;;;;;;;;3.40;99.90;;;2.30;100.00;93645.22;10364119;28;1917;-73
2021/11/28 09:40:02;;;;;;;;;;;3.40;99.90;;;2.35;100.00;93645.94;10367377;28;1906;-74
2021/11/28 09:45:05;;;;;;;;;;;3.40;99.90;;;2.43;100.00;93639.28;10360104;28;1609;-78
2021/11/28 09:50:08;;;;;;;;;;;3.50;99.90;;;2.55;100.00;93642.41;10371187;28;1894;-75
2021/11/28 09:55:11;;;;;;;;;;;3.50;99.90;;;2.69;100.00;93637.28;10390014;28;1916;-74
2021/11/28 10:00:14;;;;;;;;;;;3.50;99.90;;;2.87;100.00;93644.56;10386505;28;2065;-74
2021/11/28 10:05:17;;;;;;;;;;;3.70;99.90;;;2.86;100.00;93632.38;10400426;28;2052;-75
2021/11/28 10:10:19;;;;;;;;;;;3.80;99.90;;;2.83;100.00;93632.13;10391626;28;1781;-76
2021/11/28 10:15:22;;;;;;;;;;;3.80;99.90;;;3.14;100.00;93628.16;10372263;28;1842;-75
2021/11/28 10:20:26;;;;;;;;;;;4.00;99.90;;;3.29;100.00;93618.44;10377503;28;2245;-76
2021/11/28 10:25:29;;;;;;;;;;;4.10;99.90;;;3.12;100.00;93624.19;10374563;28;1861;-77
2021/11/28 10:30:32;;;;;;;;;;;4.20;99.90;;;2.84;100.00;93628.41;10371800;28;1976;-76
2021/11/28 10:35:34;;;;;;;;;;;4.10;99.90;;;2.67;100.00;93618.97;10363164;28;1754;-77
2021/11/28 10:40:42;;;;;;;;;;;3.90;99.90;;;2.78;100.00;93618.88;10367028;28;1977;-75
2021/11/28 10:45:48;;;;;;;;;;;3.90;99.90;;;2.83;100.00;93613.53;10367879;28;1666;-75
2021/11/28 10:50:52;;;;;;;;;;;3.90;99.90;;;2.77;100.00;93617.31;10380415;28;1371;-75
2021/11/28 10:55:56;;;;;;;;;;;3.90;99.90;;;2.73;100.00;93606.44;10374873;28;1408;-75
2021/11/28 11:00:59;;;;;;;;;;;3.80;99.90;;;2.67;100.00;93597.75;10374343;28;1906;-78
2021/11/28 11:06:04;;;;;;;;;;;3.70;99.90;;;2.75;100.00;93598.22;10370519;28;1557;-76
2021/11/28 11:11:07;;;;;;;;;;;3.70;99.90;;;2.75;100.00;93606.19;10371166;28;1421;-77
2021/11/28 11:16:11;;;;;;;;;;;3.70;99.90;;;2.48;100.00;93591.50;10370879;28;1917;-77
2021/11/28 11:21:16;;;;;;;;;;;3.40;99.90;;;2.34;100.00;93593.19;10373039;28;1170;-76
2021/11/28 11:26:19;;;;;;;;;;;3.30;99.90;;;2.06;100.00;93603.44;10370646;28;1893;-77
2021/11/28 11:31:23;;;;;;;;;;;3.20;99.90;;;1.96;100.00;93605.34;10370370;28;1447;-77
2021/11/28 11:36:26;;;;;;;;;;;3.00;99.90;;;1.60;100.00;93600.22;10379250;28;1983;-79
2021/11/28 11:41:28;;;;;;;;;;;2.80;99.90;;;1.30;100.00;93604.53;10372689;28;1936;-78
2021/11/28 11:46:31;;;;;;;;;;;2.50;99.90;;;1.08;100.00;93606.69;10377230;28;1909;-79
2021/11/28 11:51:34;;;;;;;;;;;2.30;99.90;;;0.90;100.00;93612.56;10382431;28;1917;-78
2021/11/28 11:56:37;;;;;;;;;;;2.10;99.90;;;0.75;100.00;93600.09;10368780;28;1977;-80
2021/11/28 12:01:40;;;;;;;;;;;1.90;99.90;;;0.72;100.00;93608.59;10385052;28;1928;-79
2021/11/28 12:06:44;;;;;;;;;;;1.70;99.90;;;0.71;100.00;93604.38;10382758;28;1830;-79
2021/11/28 12:11:47;;;;;;;;;;;1.60;99.90;;;0.66;100.00;93607.00;10377670;28;1850;-80
2021/11/28 12:16:50;;;;;;;;;;;1.50;99.90;;;0.66;100.00;93601.72;10379771;28;1946;-79
2021/11/28 12:21:53;;;;;;;;;;;1.60;99.90;;;0.74;100.00;93594.03;10401480;28;1750;-78
2021/11/28 12:26:56;;;;;;;;;;;1.60;99.90;;;0.90;100.00;93592.19;10396984;28;1881;-78
2021/11/28 12:31:59;;;;;;;;;;;1.60;99.90;;;1.03;100.00;93586.34;10397509;28;1932;-78
2021/11/28 12:37:02;;;;;;;;;;;1.70;99.90;;;1.18;100.00;93590.81;10387055;28;2197;-78
2021/11/28 12:42:05;;;;;;;;;;;1.90;99.90;;;1.37;100.00;93584.94;10383335;28;1754;-76
2021/11/28 12:47:08;;;;;;;;;;;2.00;99.90;;;1.57;100.00;93593.59;10374949;28;2193;-78
2021/11/28 12:52:10;;;;;;;;;;;2.10;99.90;;;1.78;100.00;93582.91;10383140;28;1901;-77
2021/11/28 12:57:13;;;;;;;;;;;2.30;99.90;;;1.59;100.00;93586.19;10381006;28;2001;-78
2021/11/28 13:02:16;;;;;;;;;;;2.40;99.90;;;1.75;100.00;93599.34;10371367;28;1910;-78
2021/11/28 13:07:19;;;;;;;;;;;2.50;99.90;;;2.05;100.00;93596.56;10365505;28;1937;-79
2021/11/28 13:12:22;;;;;;;;;;;2.50;99.90;;;2.33;100.00;93592.41;10367929;28;1909;-79
2021/11/28 13:17:25;;;;;;;;;;;2.70;99.90;;;2.10;100.00;93593.91;10367642;28;1914;-78
2021/11/28 13:22:28;;;;;;;;;;;2.80;99.90;;;2.07;100.00;93591.78;10373876;28;1969;-77
2021/11/28 13:27:31;;;;;;;;;;;2.80;99.90;;;2.01;100.00;93600.81;10367319;28;1782;-77
2021/11/28 13:32:35;;;;;;;;;;;2.80;99.90;;;1.91;100.00;93590.28;10371121;28;1885;-77
2021/11/28 13:37:38;;;;;;;;;;;2.70;99.90;;;1.98;100.00;93590.78;10355515;28;1987;-74
2021/11/28 13:42:40;;;;;;;;;;;2.80;99.90;;;2.00;100.00;93588.63;10364426;28;1846;-74
2021/11/28 13:47:43;;;;;;;;;;;2.80;99.90;;;1.96;100.00;93597.41;10367017;28;1874;-74
2021/11/28 13:52:47;;;;;;;;;;;2.80;99.90;;;1.84;100.00;93595.06;10365020;28;1899;-73
2021/11/28 13:57:50;;;;;;;;;;;2.90;99.90;;;1.97;100.00;93598.97;10358327;28;1906;-73
2021/11/28 14:02:53;;;;;;;;;;;2.80;99.90;;;2.01;100.00;93602.69;10362258;28;1882;-73
2021/11/28 14:07:59;;;;;;;;;;;2.90;99.90;;;1.96;100.00;93605.34;10364851;28;2028;-73
2021/11/28 14:13:07;;;;;;;;;;;2.90;99.90;;;2.01;100.00;93606.13;10362154;28;1889;-74
2021/11/28 14:18:10;;;;;;;;;;;3.00;99.90;;;1.84;100.00;93613.63;10358126;28;1988;-77
2021/11/28 14:23:14;;;;;;;;;;;2.90;99.90;;;1.83;100.00;93612.03;10364652;28;1890;-74
2021/11/28 14:28:17;;;;;;;;;;;2.80;99.90;;;1.76;100.00;93619.47;10365793;28;1749;-76
2021/11/28 14:33:20;;;;;;;;;;;2.80;99.90;;;1.73;100.00;93620.03;10365473;28;1883;-77
2021/11/28 14:38:24;;;;;;;;;;;2.80;99.90;;;1.71;100.00;93622.16;10360687;28;1929;-76
2021/11/28 14:43:27;;;;;;;;;;;2.70;99.90;;;1.54;100.00;93612.69;10361543;28;1831;-77
2021/11/28 14:48:29;;;;;;;;;;;2.70;99.90;;;1.57;100.00;93612.13;10363083;28;1864;-76
2021/11/28 14:53:32;;;;;;;;;;;2.70;99.90;;;1.44;100.00;93607.41;10399209;28;1874;-76
2021/11/28 14:58:36;;;;;;;;;;;2.60;99.90;;;1.25;100.00;93614.34;10402591;28;1989;-77
2021/11/28 15:03:38;;;;;;;;;;;2.50;99.90;;;1.16;100.00;93597.44;10412369;28;1883;-77
2021/11/28 15:08:41;;;;;;;;;;;2.40;99.90;;;0.93;100.00;93604.06;10407410;28;2105;-77
2021/11/28 15:13:44;;;;;;;;;;;2.30;99.90;;;0.75;100.00;93606.19;10400266;28;1986;-78
2021/11/28 15:18:47;;;;;;;;;;;2.10;99.90;;;0.51;100.00;93598.00;10377685;28;1966;-74
2021/11/28 15:23:51;;;;;;;;;;;1.90;99.90;;;0.40;100.00;93599.06;10374585;28;1880;-74
2021/11/28 15:28:54;;;;;;;;;;;1.80;99.90;;;0.32;100.00;93607.53;10372113;28;2209;-74
2021/11/28 15:33:56;;;;;;;;;;;1.70;99.90;;;0.41;100.00;93607.78;10370132;28;1826;-75
2021/11/28 15:39:01;;;;;;;;;;;1.60;99.90;;;0.52;100.00;93618.09;10365882;28;1983;-74
2021/11/28 15:44:04;;;;;;;;;;;1.70;99.90;;;0.65;100.00;93616.00;10366875;28;2016;-74
2021/11/28 15:49:19;;;;;;;;;;;1.80;99.90;;;0.56;100.00;93628.13;10372003;28;1868;-75
2021/11/28 15:54:22;;;;;;;;;;;1.80;99.90;;;0.46;100.00;93629.72;10366743;28;1888;-75
2021/11/28 15:59:25;;;;;;;;;;;1.70;99.90;;;0.41;100.00;93637.66;10368375;28;1994;-74
2021/11/28 16:04:27;;;;;;;;;;;1.60;99.90;;;0.46;100.00;93639.50;10364937;28;2256;-74
2021/11/28 16:09:30;;;;;;;;;;;1.60;99.90;;;0.49;100.00;93638.97;10367665;28;1916;-75
2021/11/28 16:14:33;;;;;;;;;;;1.60;99.90;;;0.51;100.00;93650.88;10366767;28;1930;-75
2021/11/28 16:19:36;;;;;;;;;;;1.70;99.90;;;0.53;100.00;93653.25;10368347;28;1976;-75
2021/11/28 16:24:39;;;;;;;;;;;1.70;99.90;;;0.65;100.00;93655.66;10366457;28;1896;-75
2021/11/28 16:29:42;;;;;;;;;;;1.70;99.90;;;0.68;100.00;93647.97;10367491;28;1831;-75
2021/11/28 16:34:45;;;;;;;;;;;1.70;99.90;;;0.73;100.00;93653.28;10364661;28;1958;-75
2021/11/28 16:39:48;;;;;;;;;;;1.80;99.90;;;0.82;100.00;93646.38;10369533;28;2011;-75
2021/11/28 16:44:51;;;;;;;;;;;1.90;99.90;;;0.76;100.00;93644.00;10361964;28;1805;-75
2021/11/28 16:49:54;;;;;;;;;;;1.90;99.90;;;0.74;100.00;93641.63;10367772;28;1961;-75
2021/11/28 16:54:57;;;;;;;;;;;1.90;99.90;;;0.78;100.00;93639.25;10360559;28;1890;-76
2021/11/28 17:00:00;;;;;;;;;;;1.90;99.90;;;0.89;100.00;93654.09;10360349;28;2108;-75
2021/11/28 17:05:03;;;;;;;;;;;2.00;99.90;;;0.91;100.00;93651.16;10361730;28;1960;-75
2021/11/28 17:10:06;;;;;;;;;;;2.00;99.90;;;0.93;100.00;93649.84;10364140;28;1673;-75
2021/11/28 17:15:12;;;;;;;;;;;2.00;99.90;;;0.99;100.00;93643.47;10372026;28;1527;-76
2021/11/28 17:20:14;;;;;;;;;;;2.00;99.90;;;0.99;100.00;93643.47;10364014;28;1979;-73
2021/11/28 17:25:37;;;;;;;;;;;2.00;99.90;;;1.03;100.00;93644.53;10360468;28;2062;-74
2021/11/28 17:30:41;;;;;;;;;;;2.10;99.90;;;1.04;100.00;93646.13;10367130;28;1941;-74
2021/11/28 17:36:04;;;;;;;;;;;2.10;99.90;;;1.03;100.00;93660.41;10371021;28;1823;-75
2021/11/28 17:41:10;;;;;;;;;;;2.20;99.90;;;1.06;100.00;93667.81;10362654;28;1914;-75
2021/11/28 17:46:14;;;;;;;;;;;2.20;99.90;;;1.03;100.00;93665.72;10367541;28;1866;-74
2021/11/28 17:51:18;;;;;;;;;;;2.20;99.90;;;1.06;100.00;93669.66;10366771;28;1993;-74
2021/11/28 17:56:23;;;;;;;;;;;2.20;99.90;;;1.02;100.00;93674.72;10359058;28;1906;-75
2021/11/28 18:01:26;;;;;;;;;;;2.20;99.90;;;0.97;100.00;93680.00;10363622;28;1940;-75
2021/11/28 18:06:29;;;;;;;;;;;2.10;99.90;;;0.84;100.00;93677.88;10361934;28;1896;-75
2021/11/28 18:11:32;;;;;;;;;;;2.00;99.90;;;0.76;100.00;93686.31;10366615;28;1822;-74
2021/11/28 18:16:35;;;;;;;;;;;2.00;99.90;;;0.72;100.00;93691.34;10363067;28;1890;-76
2021/11/28 18:21:37;;;;;;;;;;;1.90;99.90;;;0.73;100.00;93692.16;10365113;28;2163;-75
2021/11/28 18:26:40;;;;;;;;;;;1.90;99.90;;;0.76;100.00;93687.13;10367668;28;1916;-75
2021/11/28 18:31:43;;;;;;;;;;;1.90;99.90;;;0.59;100.00;93686.59;10373215;28;1901;-76
2021/11/28 18:36:46;;;;;;;;;;;1.90;99.90;;;0.58;100.00;93687.66;10366619;28;1944;-75
2021/11/28 18:41:49;;;;;;;;;;;1.80;99.90;;;0.60;100.00;93682.09;10362932;28;1906;-75
2021/11/28 18:46:52;;;;;;;;;;;1.70;99.90;;;0.61;100.00;93686.31;10361906;28;1996;-75
2021/11/28 18:51:55;;;;;;;;;;;1.70;99.90;;;0.65;100.00;93679.44;10369665;28;1870;-75
2021/11/28 18:56:58;;;;;;;;;;;1.70;99.90;;;0.57;100.00;93677.31;10368259;28;1988;-75
2021/11/28 19:02:00;;;;;;;;;;;1.80;99.90;;;0.26;100.00;93656.13;10367876;28;2059;-75
2021/11/28 19:07:04;;;;;;;;;;;1.60;99.90;;;0.20;100.00;93649.25;10368085;28;1480;-75
2021/11/28 19:12:06;;;;;;;;;;;1.50;99.90;;;0.08;100.00;93675.09;10369455;28;1789;-76
2021/11/28 19:17:09;;;;;;;;;;;1.40;99.90;;;0.10;100.00;93688.84;10367558;28;1851;-75
2021/11/28 19:22:12;;;;;;;;;;;1.30;99.90;;;0.20;100.00;93680.94;10373041;28;1975;-75
2021/11/28 19:27:15;;;;;;;;;;;1.30;99.90;;;0.31;100.00;93679.09;10370351;28;2214;-76
2021/11/28 19:32:18;;;;;;;;;;;1.40;99.90;;;0.40;100.00;93710.06;10364333;28;1913;-76
2021/11/28 19:37:21;;;;;;;;;;;1.50;99.90;;;0.47;100.00;93713.25;10365250;28;1765;-76
2021/11/28 19:42:27;;;;;;;;;;;1.50;99.90;;;0.50;100.00;93718.00;10366522;28;2136;-75
2021/11/28 19:47:30;;;;;;;;;;;1.60;99.90;;;0.66;100.00;93718.06;10364418;28;2273;-80
2021/11/28 19:52:33;;;;;;;;;;;1.60;99.90;;;0.64;100.00;93725.47;10369482;28;1921;-75
2021/11/28 19:57:37;;;;;;;;;;;1.70;99.90;;;0.49;100.00;93734.94;10372015;28;1452;-76
2021/11/28 20:02:55;;;;;;;;;;;1.60;99.90;;;0.37;100.00;93741.50;10382501;28;1890;-75
2021/11/28 20:07:58;;;;;;;;;;;1.50;99.90;;;0.37;100.00;93747.56;10384949;28;1831;-74
2021/11/28 20:13:01;;;;;;;;;;;1.50;99.90;;;0.31;100.00;93758.38;10386969;28;1948;-74
2021/11/28 20:18:04;;;;;;;;;;;1.40;99.90;;;0.30;100.00;93762.09;10392683;28;1787;-75
2021/11/28 20:23:07;;;;;;;;;;;1.40;99.90;;;0.24;100.00;93758.63;10379286;28;1914;-75
2021/11/28 20:28:20;;;;;;;;;;;1.40;99.90;;;0.21;100.00;93759.16;10367544;28;2047;-75
2021/11/28 20:33:22;;;;;;;;;;;1.40;99.90;;;0.18;100.00;93762.31;10369531;28;1998;-75
2021/11/28 20:38:25;;;;;;;;;;;1.30;99.90;;;0.05;100.00;93765.41;10365875;28;1893;-74
2021/11/28 20:43:28;;;;;;;;;;;1.20;99.90;;;0.10;100.00;93762.81;10358373;28;1914;-76
2021/11/28 20:48:33;;;;;;;;;;;1.20;99.90;;;0.12;100.00;93771.25;10368445;28;1952;-75
2021/11/28 20:53:36;;;;;;;;;;;1.20;99.90;;;0.17;100.00;93768.66;10367761;28;1833;-75
2021/11/28 20:58:41;;;;;;;;;;;1.20;99.90;;;0.26;100.00;93767.91;10366857;28;1960;-74
2021/11/28 21:03:44;;;;;;;;;;;1.30;99.90;;;0.30;100.00;93765.53;10362987;28;1901;-76
2021/11/28 21:08:47;;;;;;;;;;;1.30;99.90;;;0.30;100.00;93765.53;10365072;28;1984;-76
2021/11/28 21:13:50;;;;;;;;;;;1.30;99.90;;;0.34;100.00;93771.91;10368865;28;1376;-77
2021/11/28 21:18:53;;;;;;;;;;;1.40;99.90;;;0.37;100.00;93758.16;10362517;28;1918;-75
2021/11/28 21:23:56;;;;;;;;;;;1.40;99.90;;;0.17;100.00;93766.00;10366706;28;1519;-74
2021/11/28 21:28:59;;;;;;;;;;;1.30;99.90;;;0.21;100.00;93769.72;10367421;28;1897;-74
2021/11/28 21:34:03;;;;;;;;;;;1.30;99.90;;;0.20;100.00;93770.78;10362285;28;1783;-73
2021/11/28 21:39:06;;;;;;;;;;;1.30;99.90;;;0.22;100.00;93771.31;10358364;28;1977;-76
2021/11/28 21:44:09;;;;;;;;;;;1.30;99.90;;;0.24;100.00;93780.56;10364046;28;1971;-76
2021/11/28 21:49:12;;;;;;;;;;;1.30;99.90;;;0.14;100.00;93790.31;10360855;28;1938;-76
2021/11/28 21:54:15;;;;;;;;;;;1.30;99.90;;;0.20;100.00;93786.66;10364939;28;1903;-76
2021/11/28 21:59:18;;;;;;;;;;;1.30;99.90;;;0.22;100.00;93790.59;10361260;28;1967;-76
2021/11/28 22:04:21;;;;;;;;;;;1.30;99.90;;;0.31;100.00;93795.38;10371074;28;1896;-77
2021/11/28 22:09:24;;;;;;;;;;;1.30;99.90;;;0.38;100.00;93795.94;10371134;28;1956;-76
2021/11/28 22:14:27;;;;;;;;;;;1.40;99.90;;;0.24;100.00;93795.63;10371222;28;1894;-76
2021/11/28 22:19:30;;;;;;;;;;;1.40;99.90;;;0.20;100.00;93794.56;10372463;28;1985;-76
2021/11/28 22:24:33;;;;;;;;;;;1.30;99.90;;;0.09;100.00;93795.56;10370839;28;1886;-76
2021/11/28 22:29:36;;;;;;;;;;;1.20;99.90;;;0.01;100.00;93793.41;10373824;28;1897;-76
2021/11/28 22:34:39;;;;;;;;;;;1.20;99.90;;;-0.14;100.00;93794.91;10372080;28;1791;-75
2021/11/28 22:39:42;;;;;;;;;;;1.10;99.90;;;-0.13;100.00;93796.47;10370098;28;1988;-75
2021/11/28 22:44:45;;;;;;;;;;;1.00;99.90;;;-0.13;100.00;93800.97;10368893;28;1890;-75
2021/11/28 22:49:49;;;;;;;;;;;1.10;99.90;;;-0.16;100.00;93802.28;10371350;28;1588;-74
2021/11/28 22:54:52;;;;;;;;;;;1.00;99.90;;;-0.20;100.00;93800.41;10372305;28;1262;-75
2021/11/28 22:59:55;;;;;;;;;;;1.00;99.90;;;-0.30;100.00;93809.88;10364877;28;1983;-75
2021/11/28 23:04:58;;;;;;;;;;;0.90;99.90;;;-0.32;100.00;93808.50;10373972;28;1864;-75
2021/11/28 23:10:01;;;;;;;;;;;0.90;99.90;;;-0.38;100.00;93802.41;10369856;28;2060;-76
2021/11/28 23:15:04;;;;;;;;;;;0.90;99.90;;;-0.37;100.00;93813.78;10367244;28;2014;-75
2021/11/28 23:20:07;;;;;;;;;;;0.80;99.90;;;-0.40;100.00;93812.41;10367767;28;1918;-75
2021/11/28 23:25:10;;;;;;;;;;;0.80;99.90;;;-0.43;100.00;93818.22;10372875;28;1870;-75
2021/11/28 23:30:14;;;;;;;;;;;0.80;99.90;;;-0.40;100.00;93816.91;10375041;28;1969;-74